sensor_id;sensor_type;location;lat;lon;timestamp;pressure;altitude;pressure_sealevel;temperature;humidity
58686;BME280;44465;53.206;-6.106;2023-12-29T00:00:55;99628.72;;;21.95;49.69
58686;BME280;44465;53.206;-6.106;2023-12-29T00:03:21;99635.34;;;22.03;49.80
58686;BME280;44465;53.206;-6.106;2023-12-29T00:05:46;99649.97;;;22.21;50.00
58686;BME280;44465;53.206;-6.106;2023-12-29T00:08:12;99631.41;;;21.95;49.78
58686;BME280;44465;53.206;-6.106;2023-12-29T00:10:38;99611.94;;;21.93;49.50
58686;BME280;44465;53.206;-6.106;2023-12-29T00:13:03;99628.00;;;21.93;49.92
58686;BME280;44465;53.206;-6.106;2023-12-29T00:15:29;99604.59;;;21.84;49.92
58686;BME280;44465;53.206;-6.106;2023-12-29T00:17:54;99602.16;;;21.81;49.64
58686;BME280;44465;53.206;-6.106;2023-12-29T00:20:20;99619.34;;;21.90;49.92
58686;BME280;44465;53.206;-6.106;2023-12-29T00:22:45;99623.63;;;21.92;49.57
58686;BME280;44465;53.206;-6.106;2023-12-29T00:25:11;99657.66;;;22.14;49.93
58686;BME280;44465;53.206;-6.106;2023-12-29T00:27:36;99613.34;;;21.86;49.74
58686;BME280;44465;53.206;-6.106;2023-12-29T00:30:02;99598.59;;;21.80;49.54
58686;BME280;44465;53.206;-6.106;2023-12-29T00:32:28;99624.59;;;21.91;49.44
58686;BME280;44465;53.206;-6.106;2023-12-29T00:34:53;99602.78;;;21.84;49.57
58686;BME280;44465;53.206;-6.106;2023-12-29T00:37:20;99613.34;;;21.86;49.63
58686;BME280;44465;53.206;-6.106;2023-12-29T00:39:46;99560.00;;;21.72;49.84
58686;BME280;44465;53.206;-6.106;2023-12-29T00:42:11;99606.28;;;21.85;49.62
58686;BME280;44465;53.206;-6.106;2023-12-29T00:44:38;99614.47;;;21.83;49.59
58686;BME280;44465;53.206;-6.106;2023-12-29T00:47:04;99605.94;;;21.78;49.74
58686;BME280;44465;53.206;-6.106;2023-12-29T00:49:30;99592.03;;;21.73;49.71
58686;BME280;44465;53.206;-6.106;2023-12-29T00:51:55;99584.97;;;21.72;49.57
58686;BME280;44465;53.206;-6.106;2023-12-29T00:54:21;99600.19;;;21.72;49.49
58686;BME280;44465;53.206;-6.106;2023-12-29T00:56:50;99600.69;;;21.88;49.58
58686;BME280;44465;53.206;-6.106;2023-12-29T00:59:18;99579.81;;;21.69;49.65
58686;BME280;44465;53.206;-6.106;2023-12-29T01:01:44;99598.38;;;21.83;49.55
58686;BME280;44465;53.206;-6.106;2023-12-29T01:04:10;99572.88;;;21.66;49.54
58686;BME280;44465;53.206;-6.106;2023-12-29T01:06:35;99573.84;;;21.65;49.60
58686;BME280;44465;53.206;-6.106;2023-12-29T01:09:01;99605.94;;;21.78;49.62
58686;BME280;44465;53.206;-6.106;2023-12-29T01:11:26;99621.66;;;21.83;49.57
58686;BME280;44465;53.206;-6.106;2023-12-29T01:13:52;99638.25;;;21.99;49.54
58686;BME280;44465;53.206;-6.106;2023-12-29T01:16:17;99589.69;;;21.68;49.64
58686;BME280;44465;53.206;-6.106;2023-12-29T01:18:43;99603.84;;;21.71;49.63
58686;BME280;44465;53.206;-6.106;2023-12-29T01:21:08;99618.81;;;21.73;49.61
58686;BME280;44465;53.206;-6.106;2023-12-29T01:23:34;99619.56;;;21.75;49.61
58686;BME280;44465;53.206;-6.106;2023-12-29T01:25:59;99594.56;;;21.63;49.64
58686;BME280;44465;53.206;-6.106;2023-12-29T01:28:25;99632.84;;;21.77;49.54
58686;BME280;44465;53.206;-6.106;2023-12-29T01:30:51;99593.28;;;21.56;49.34
58686;BME280;44465;53.206;-6.106;2023-12-29T01:33:16;99643.44;;;21.78;49.13
58686;BME280;44465;53.206;-6.106;2023-12-29T01:35:42;99662.09;;;21.80;49.33
58686;BME280;44465;53.206;-6.106;2023-12-29T01:38:07;99604.28;;;21.64;49.51
58686;BME280;44465;53.206;-6.106;2023-12-29T01:40:42;99599.63;;;21.55;49.32
58686;BME280;44465;53.206;-6.106;2023-12-29T01:43:08;99576.72;;;21.51;49.32
58686;BME280;44465;53.206;-6.106;2023-12-29T01:45:34;99629.38;;;21.63;49.63
58686;BME280;44465;53.206;-6.106;2023-12-29T01:47:59;99593.03;;;21.48;49.37
58686;BME280;44465;53.206;-6.106;2023-12-29T01:50:25;99645.00;;;21.69;49.39
58686;BME280;44465;53.206;-6.106;2023-12-29T01:52:52;99608.19;;;21.60;49.54
58686;BME280;44465;53.206;-6.106;2023-12-29T01:55:19;99592.06;;;21.49;49.26
58686;BME280;44465;53.206;-6.106;2023-12-29T01:57:47;99632.34;;;21.72;49.08
58686;BME280;44465;53.206;-6.106;2023-12-29T02:00:13;99630.38;;;21.62;49.34
58686;BME280;44465;53.206;-6.106;2023-12-29T02:02:42;99651.13;;;21.83;49.36
58686;BME280;44465;53.206;-6.106;2023-12-29T02:05:11;99626.69;;;21.63;49.28
58686;BME280;44465;53.206;-6.106;2023-12-29T02:07:38;99590.47;;;21.46;49.11
58686;BME280;44465;53.206;-6.106;2023-12-29T02:10:05;99601.81;;;21.50;48.87
58686;BME280;44465;53.206;-6.106;2023-12-29T02:12:31;99607.22;;;21.61;49.36
58686;BME280;44465;53.206;-6.106;2023-12-29T02:14:56;99598.25;;;21.49;49.23
58686;BME280;44465;53.206;-6.106;2023-12-29T02:17:27;99659.75;;;21.75;48.94
58686;BME280;44465;53.206;-6.106;2023-12-29T02:19:55;99623.50;;;21.58;49.15
58686;BME280;44465;53.206;-6.106;2023-12-29T02:22:22;99643.06;;;21.72;48.99
58686;BME280;44465;53.206;-6.106;2023-12-29T02:24:51;99566.09;;;21.38;49.17
58686;BME280;44465;53.206;-6.106;2023-12-29T02:27:46;99588.03;;;21.43;49.44
58686;BME280;44465;53.206;-6.106;2023-12-29T02:30:37;99634.91;;;21.73;49.38
58686;BME280;44465;53.206;-6.106;2023-12-29T02:33:10;99669.72;;;21.73;49.16
58686;BME280;44465;53.206;-6.106;2023-12-29T02:35:39;99639.50;;;21.71;48.99
58686;BME280;44465;53.206;-6.106;2023-12-29T02:38:06;99640.84;;;21.65;49.15
58686;BME280;44465;53.206;-6.106;2023-12-29T02:40:32;99658.28;;;21.71;49.30
58686;BME280;44465;53.206;-6.106;2023-12-29T02:42:57;99638.16;;;21.65;49.03
58686;BME280;44465;53.206;-6.106;2023-12-29T02:45:23;99619.09;;;21.57;49.34
58686;BME280;44465;53.206;-6.106;2023-12-29T02:47:49;99634.06;;;21.73;48.88
58686;BME280;44465;53.206;-6.106;2023-12-29T02:50:15;99619.34;;;21.54;48.87
58686;BME280;44465;53.206;-6.106;2023-12-29T02:52:41;99643.63;;;21.64;48.96
58686;BME280;44465;53.206;-6.106;2023-12-29T02:55:07;99620.56;;;21.50;48.98
58686;BME280;44465;53.206;-6.106;2023-12-29T02:57:32;99613.78;;;21.33;48.81
58686;BME280;44465;53.206;-6.106;2023-12-29T02:59:58;99627.09;;;21.46;48.93
58686;BME280;44465;53.206;-6.106;2023-12-29T03:02:24;99630.75;;;21.45;48.79
58686;BME280;44465;53.206;-6.106;2023-12-29T03:04:50;99629.44;;;21.50;48.91
58686;BME280;44465;53.206;-6.106;2023-12-29T03:07:16;99625.75;;;21.40;49.11
58686;BME280;44465;53.206;-6.106;2023-12-29T03:09:41;99610.78;;;21.37;48.70
58686;BME280;44465;53.206;-6.106;2023-12-29T03:12:07;99616.88;;;21.39;48.92
58686;BME280;44465;53.206;-6.106;2023-12-29T03:14:33;99608.78;;;21.28;48.82
58686;BME280;44465;53.206;-6.106;2023-12-29T03:16:58;99650.28;;;21.58;49.11
58686;BME280;44465;53.206;-6.106;2023-12-29T03:19:24;99621.66;;;21.23;49.03
58686;BME280;44465;53.206;-6.106;2023-12-29T03:21:50;99645.00;;;21.45;48.73
58686;BME280;44465;53.206;-6.106;2023-12-29T03:24:16;99601.44;;;21.19;48.69
58686;BME280;44465;53.206;-6.106;2023-12-29T03:26:42;99632.88;;;21.28;48.76
58686;BME280;44465;53.206;-6.106;2023-12-29T03:29:07;99680.53;;;21.60;48.75
58686;BME280;44465;53.206;-6.106;2023-12-29T03:31:33;99688.44;;;21.62;48.68
58686;BME280;44465;53.206;-6.106;2023-12-29T03:33:59;99636.81;;;21.35;48.63
58686;BME280;44465;53.206;-6.106;2023-12-29T03:36:24;99662.66;;;21.48;48.66
58686;BME280;44465;53.206;-6.106;2023-12-29T03:38:50;99647.97;;;21.29;48.82
58686;BME280;44465;53.206;-6.106;2023-12-29T03:41:16;99638.25;;;21.28;48.82
58686;BME280;44465;53.206;-6.106;2023-12-29T03:43:41;99651.41;;;21.31;48.84
58686;BME280;44465;53.206;-6.106;2023-12-29T03:46:17;99624.66;;;21.18;49.02
58686;BME280;44465;53.206;-6.106;2023-12-29T03:48:43;99674.06;;;21.38;48.58
58686;BME280;44465;53.206;-6.106;2023-12-29T03:51:08;99639.22;;;21.27;48.56
58686;BME280;44465;53.206;-6.106;2023-12-29T03:53:34;99635.38;;;21.18;48.66
58686;BME280;44465;53.206;-6.106;2023-12-29T03:56:04;99635.78;;;21.25;48.47
58686;BME280;44465;53.206;-6.106;2023-12-29T03:58:30;99687.53;;;21.50;48.38
58686;BME280;44465;53.206;-6.106;2023-12-29T04:00:56;99695.78;;;21.47;48.65
58686;BME280;44465;53.206;-6.106;2023-12-29T04:03:21;99686.25;;;21.43;48.81
58686;BME280;44465;53.206;-6.106;2023-12-29T04:05:47;99651.56;;;21.17;48.77
58686;BME280;44465;53.206;-6.106;2023-12-29T04:08:14;99694.75;;;21.36;48.35
58686;BME280;44465;53.206;-6.106;2023-12-29T04:14:10;99711.09;;;21.45;48.39
58686;BME280;44465;53.206;-6.106;2023-12-29T04:16:38;99737.44;;;21.51;48.69
58686;BME280;44465;53.206;-6.106;2023-12-29T04:19:04;99721.59;;;21.48;48.93
58686;BME280;44465;53.206;-6.106;2023-12-29T04:21:30;99718.00;;;21.36;48.73
58686;BME280;44465;53.206;-6.106;2023-12-29T04:23:58;99714.53;;;21.47;48.86
58686;BME280;44465;53.206;-6.106;2023-12-29T04:26:23;99695.91;;;21.21;48.63
58686;BME280;44465;53.206;-6.106;2023-12-29T04:28:49;99687.78;;;21.10;48.90
58686;BME280;44465;53.206;-6.106;2023-12-29T04:31:14;99758.53;;;21.31;48.31
58686;BME280;44465;53.206;-6.106;2023-12-29T04:33:40;99756.75;;;21.43;48.60
58686;BME280;44465;53.206;-6.106;2023-12-29T04:36:06;99735.59;;;21.27;48.72
58686;BME280;44465;53.206;-6.106;2023-12-29T04:38:31;99707.56;;;21.20;48.57
58686;BME280;44465;53.206;-6.106;2023-12-29T04:40:57;99735.59;;;21.27;48.45
58686;BME280;44465;53.206;-6.106;2023-12-29T04:43:22;99741.50;;;21.19;48.78
58686;BME280;44465;53.206;-6.106;2023-12-29T04:45:48;99737.75;;;21.22;48.53
58686;BME280;44465;53.206;-6.106;2023-12-29T04:48:14;99732.84;;;21.16;48.49
58686;BME280;44465;53.206;-6.106;2023-12-29T04:50:39;99732.63;;;21.19;48.59
58686;BME280;44465;53.206;-6.106;2023-12-29T04:53:05;99717.00;;;21.13;48.62
58686;BME280;44465;53.206;-6.106;2023-12-29T04:55:30;99755.53;;;21.23;48.60
58686;BME280;44465;53.206;-6.106;2023-12-29T04:57:56;99775.47;;;21.19;48.99
58686;BME280;44465;53.206;-6.106;2023-12-29T05:00:21;99782.66;;;21.43;48.66
58686;BME280;44465;53.206;-6.106;2023-12-29T05:02:47;99734.47;;;21.05;48.80
58686;BME280;44465;53.206;-6.106;2023-12-29T05:05:13;99746.09;;;21.17;48.71
58686;BME280;44465;53.206;-6.106;2023-12-29T05:07:38;99739.50;;;21.10;48.53
58686;BME280;44465;53.206;-6.106;2023-12-29T05:10:04;99793.72;;;21.38;48.36
58686;BME280;44465;53.206;-6.106;2023-12-29T05:12:30;99801.13;;;21.34;48.86
58686;BME280;44465;53.206;-6.106;2023-12-29T05:14:55;99751.28;;;21.07;48.41
58686;BME280;44465;53.206;-6.106;2023-12-29T05:17:21;99797.31;;;21.26;48.37
58686;BME280;44465;53.206;-6.106;2023-12-29T05:19:46;99793.25;;;21.20;48.48
58686;BME280;44465;53.206;-6.106;2023-12-29T05:22:12;99820.19;;;21.30;48.49
58686;BME280;44465;53.206;-6.106;2023-12-29T05:24:42;99770.25;;;21.04;48.48
58686;BME280;44465;53.206;-6.106;2023-12-29T05:27:07;99741.25;;;20.98;48.57
58686;BME280;44465;53.206;-6.106;2023-12-29T05:29:33;99746.69;;;20.97;48.43
58686;BME280;44465;53.206;-6.106;2023-12-29T05:31:58;99785.34;;;21.05;48.53
58686;BME280;44465;53.206;-6.106;2023-12-29T05:34:24;99768.84;;;20.99;48.67
58686;BME280;44465;53.206;-6.106;2023-12-29T05:36:49;99789.28;;;21.13;48.55
58686;BME280;44465;53.206;-6.106;2023-12-29T05:39:15;99776.56;;;21.03;48.59
58686;BME280;44465;53.206;-6.106;2023-12-29T05:41:40;99793.66;;;21.14;48.47
58686;BME280;44465;53.206;-6.106;2023-12-29T05:44:06;99775.81;;;21.01;48.46
58686;BME280;44465;53.206;-6.106;2023-12-29T05:46:32;99783.31;;;20.96;48.62
58686;BME280;44465;53.206;-6.106;2023-12-29T05:48:57;99800.22;;;21.10;48.57
58686;BME280;44465;53.206;-6.106;2023-12-29T05:51:23;99836.19;;;21.31;48.50
58686;BME280;44465;53.206;-6.106;2023-12-29T05:53:48;99774.53;;;20.94;48.54
58686;BME280;44465;53.206;-6.106;2023-12-29T05:56:14;99823.34;;;21.11;48.26
58686;BME280;44465;53.206;-6.106;2023-12-29T05:58:41;99834.78;;;21.26;48.51
58686;BME280;44465;53.206;-6.106;2023-12-29T06:01:07;99803.97;;;20.94;48.43
58686;BME280;44465;53.206;-6.106;2023-12-29T06:03:33;99864.75;;;21.31;48.41
58686;BME280;44465;53.206;-6.106;2023-12-29T06:05:58;99865.63;;;21.31;48.76
58686;BME280;44465;53.206;-6.106;2023-12-29T06:08:24;99825.28;;;21.08;48.69
58686;BME280;44465;53.206;-6.106;2023-12-29T06:10:49;99866.81;;;21.27;48.42
58686;BME280;44465;53.206;-6.106;2023-12-29T06:13:15;99802.25;;;20.93;48.17
58686;BME280;44465;53.206;-6.106;2023-12-29T06:15:40;99847.75;;;21.19;48.55
58686;BME280;44465;53.206;-6.106;2023-12-29T06:18:06;99859.22;;;21.21;48.46
58686;BME280;44465;53.206;-6.106;2023-12-29T06:20:32;99845.28;;;21.16;48.61
58686;BME280;44465;53.206;-6.106;2023-12-29T06:22:57;99829.34;;;21.01;48.56
58686;BME280;44465;53.206;-6.106;2023-12-29T06:25:23;99824.97;;;21.00;48.68
58686;BME280;44465;53.206;-6.106;2023-12-29T06:27:48;99858.22;;;21.22;48.69
58686;BME280;44465;53.206;-6.106;2023-12-29T06:30:14;99811.38;;;20.90;48.42
58686;BME280;44465;53.206;-6.106;2023-12-29T06:32:40;99846.06;;;21.05;48.32
58686;BME280;44465;53.206;-6.106;2023-12-29T06:35:06;99838.34;;;21.00;48.45
58686;BME280;44465;53.206;-6.106;2023-12-29T06:37:32;99845.94;;;21.06;48.24
58686;BME280;44465;53.206;-6.106;2023-12-29T06:39:58;99842.00;;;20.99;48.48
58686;BME280;44465;53.206;-6.106;2023-12-29T06:42:24;99842.41;;;20.93;48.23
58686;BME280;44465;53.206;-6.106;2023-12-29T06:44:50;99885.13;;;21.20;48.48
58686;BME280;44465;53.206;-6.106;2023-12-29T06:47:15;99873.97;;;21.14;48.62
58686;BME280;44465;53.206;-6.106;2023-12-29T06:49:41;99889.63;;;21.20;48.46
58686;BME280;44465;53.206;-6.106;2023-12-29T06:52:06;99861.25;;;21.04;48.48
58686;BME280;44465;53.206;-6.106;2023-12-29T06:54:33;99872.38;;;21.11;48.43
58686;BME280;44465;53.206;-6.106;2023-12-29T06:57:00;99836.28;;;20.91;48.12
58686;BME280;44465;53.206;-6.106;2023-12-29T06:59:25;99864.56;;;21.08;48.37
58686;BME280;44465;53.206;-6.106;2023-12-29T07:01:51;99853.09;;;20.93;48.34
58686;BME280;44465;53.206;-6.106;2023-12-29T07:04:17;99861.38;;;21.03;48.51
58686;BME280;44465;53.206;-6.106;2023-12-29T07:06:42;99882.78;;;21.16;48.46
58686;BME280;44465;53.206;-6.106;2023-12-29T07:09:08;99840.38;;;20.97;48.43
58686;BME280;44465;53.206;-6.106;2023-12-29T07:11:35;99869.94;;;20.95;48.36
58686;BME280;44465;53.206;-6.106;2023-12-29T07:14:01;99885.34;;;21.04;48.43
58686;BME280;44465;53.206;-6.106;2023-12-29T07:16:27;99865.97;;;20.88;48.30
58686;BME280;44465;53.206;-6.106;2023-12-29T07:18:52;99848.53;;;20.82;48.34
58686;BME280;44465;53.206;-6.106;2023-12-29T07:21:18;99865.75;;;20.91;48.27
58686;BME280;44465;53.206;-6.106;2023-12-29T07:23:44;99899.47;;;21.06;48.43
58686;BME280;44465;53.206;-6.106;2023-12-29T07:26:10;99861.13;;;20.93;48.37
58686;BME280;44465;53.206;-6.106;2023-12-29T07:28:35;99851.94;;;20.84;48.40
58686;BME280;44465;53.206;-6.106;2023-12-29T07:31:01;99898.72;;;21.04;48.58
58686;BME280;44465;53.206;-6.106;2023-12-29T07:33:27;99919.28;;;21.17;48.60
58686;BME280;44465;53.206;-6.106;2023-12-29T07:35:53;99893.06;;;20.96;48.45
58686;BME280;44465;53.206;-6.106;2023-12-29T07:38:19;99857.31;;;20.84;48.39
58686;BME280;44465;53.206;-6.106;2023-12-29T07:40:44;99874.63;;;20.91;48.38
58686;BME280;44465;53.206;-6.106;2023-12-29T07:43:10;99904.28;;;21.01;48.41
58686;BME280;44465;53.206;-6.106;2023-12-29T07:45:36;99887.91;;;20.93;48.37
58686;BME280;44465;53.206;-6.106;2023-12-29T07:48:03;99928.16;;;21.17;48.31
58686;BME280;44465;53.206;-6.106;2023-12-29T07:50:29;99872.47;;;20.84;47.88
58686;BME280;44465;53.206;-6.106;2023-12-29T07:52:55;99903.56;;;20.99;48.30
58686;BME280;44465;53.206;-6.106;2023-12-29T07:55:20;99904.84;;;20.94;48.36
58686;BME280;44465;53.206;-6.106;2023-12-29T07:57:46;99899.88;;;20.87;48.30
58686;BME280;44465;53.206;-6.106;2023-12-29T08:00:14;99950.66;;;21.15;48.39
58686;BME280;44465;53.206;-6.106;2023-12-29T08:02:40;99960.84;;;21.10;48.62
58686;BME280;44465;53.206;-6.106;2023-12-29T08:05:05;99948.41;;;21.08;48.18
58686;BME280;44465;53.206;-6.106;2023-12-29T08:07:35;99919.06;;;20.81;48.17
58686;BME280;44465;53.206;-6.106;2023-12-29T08:10:04;99908.22;;;20.83;48.30
58686;BME280;44465;53.206;-6.106;2023-12-29T08:12:30;99953.44;;;21.00;48.33
58686;BME280;44465;53.206;-6.106;2023-12-29T08:14:55;99973.91;;;21.14;48.52
58686;BME280;44465;53.206;-6.106;2023-12-29T08:17:22;99938.88;;;20.91;48.29
58686;BME280;44465;53.206;-6.106;2023-12-29T08:19:47;99930.28;;;20.86;48.50
58686;BME280;44465;53.206;-6.106;2023-12-29T08:22:13;99951.94;;;20.96;48.35
58686;BME280;44465;53.206;-6.106;2023-12-29T08:24:43;99935.56;;;20.88;48.54
58686;BME280;44465;53.206;-6.106;2023-12-29T08:27:09;99921.94;;;20.78;48.29
58686;BME280;44465;53.206;-6.106;2023-12-29T08:29:36;99965.00;;;21.01;48.32
58686;BME280;44465;53.206;-6.106;2023-12-29T08:32:01;99933.50;;;20.79;48.30
58686;BME280;44465;53.206;-6.106;2023-12-29T08:34:30;99934.91;;;20.84;48.45
58686;BME280;44465;53.206;-6.106;2023-12-29T08:36:56;99933.28;;;20.82;48.31
58686;BME280;44465;53.206;-6.106;2023-12-29T08:39:22;99945.28;;;20.89;48.07
58686;BME280;44465;53.206;-6.106;2023-12-29T08:41:47;99943.34;;;20.91;47.98
58686;BME280;44465;53.206;-6.106;2023-12-29T08:44:15;99965.63;;;21.04;48.07
58686;BME280;44465;53.206;-6.106;2023-12-29T08:46:40;99947.97;;;20.89;48.04
58686;BME280;44465;53.206;-6.106;2023-12-29T08:49:06;99969.28;;;21.03;47.46
58686;BME280;44465;53.206;-6.106;2023-12-29T08:51:33;99945.06;;;20.92;48.00
58686;BME280;44465;53.206;-6.106;2023-12-29T08:53:58;99988.69;;;21.20;47.71
58686;BME280;44465;53.206;-6.106;2023-12-29T08:56:24;99979.34;;;21.13;48.07
58686;BME280;44465;53.206;-6.106;2023-12-29T08:58:49;99922.56;;;20.82;48.23
58686;BME280;44465;53.206;-6.106;2023-12-29T09:01:15;99945.28;;;20.89;48.29
58686;BME280;44465;53.206;-6.106;2023-12-29T09:03:41;99965.00;;;21.01;48.39
58686;BME280;44465;53.206;-6.106;2023-12-29T09:06:06;99964.34;;;20.97;48.28
58686;BME280;44465;53.206;-6.106;2023-12-29T09:08:34;100014.72;;;21.18;48.23
58686;BME280;44465;53.206;-6.106;2023-12-29T09:11:00;99971.63;;;20.95;48.44
58686;BME280;44465;53.206;-6.106;2023-12-29T09:13:25;100002.81;;;21.09;48.75
58686;BME280;44465;53.206;-6.106;2023-12-29T09:15:53;100023.69;;;21.17;48.51
58686;BME280;44465;53.206;-6.106;2023-12-29T09:18:19;100020.28;;;21.15;48.45
58686;BME280;44465;53.206;-6.106;2023-12-29T09:20:44;100023.06;;;21.13;48.60
58686;BME280;44465;53.206;-6.106;2023-12-29T09:23:10;100031.94;;;21.14;48.62
58686;BME280;44465;53.206;-6.106;2023-12-29T09:25:36;100029.81;;;21.19;48.44
58686;BME280;44465;53.206;-6.106;2023-12-29T09:28:02;100023.69;;;21.17;48.21
58686;BME280;44465;53.206;-6.106;2023-12-29T09:30:28;100011.91;;;21.06;48.09
58686;BME280;44465;53.206;-6.106;2023-12-29T09:32:53;100027.16;;;21.19;48.36
58686;BME280;44465;53.206;-6.106;2023-12-29T09:35:19;100028.09;;;21.18;48.62
58686;BME280;44465;53.206;-6.106;2023-12-29T09:37:47;100028.41;;;21.13;48.83
58686;BME280;44465;53.206;-6.106;2023-12-29T09:40:14;100008.91;;;21.11;49.07
58686;BME280;44465;53.206;-6.106;2023-12-29T09:42:44;100042.88;;;21.23;49.33
58686;BME280;44465;53.206;-6.106;2023-12-29T09:45:12;100026.50;;;21.15;49.02
58686;BME280;44465;53.206;-6.106;2023-12-29T09:47:42;100027.34;;;21.16;49.30
58686;BME280;44465;53.206;-6.106;2023-12-29T09:50:13;100050.06;;;21.23;49.75
58686;BME280;44465;53.206;-6.106;2023-12-29T09:52:39;100045.31;;;21.14;49.73
58686;BME280;44465;53.206;-6.106;2023-12-29T09:55:09;100068.94;;;21.34;49.69
58686;BME280;44465;53.206;-6.106;2023-12-29T09:57:39;100055.41;;;21.23;50.11
58686;BME280;44465;53.206;-6.106;2023-12-29T10:00:06;100076.44;;;21.29;50.26
58686;BME280;44465;53.206;-6.106;2023-12-29T10:02:38;100075.25;;;21.33;50.16
58686;BME280;44465;53.206;-6.106;2023-12-29T10:05:04;100075.03;;;21.36;50.12
58686;BME280;44465;53.206;-6.106;2023-12-29T10:07:41;100063.13;;;21.28;50.24
58686;BME280;44465;53.206;-6.106;2023-12-29T10:10:16;100079.88;;;21.31;50.06
58686;BME280;44465;53.206;-6.106;2023-12-29T10:12:43;100092.41;;;21.44;49.84
58686;BME280;44465;53.206;-6.106;2023-12-29T10:18:14;100101.53;;;21.54;49.27
58686;BME280;44465;53.206;-6.106;2023-12-29T10:21:01;100122.00;;;21.55;49.21
58686;BME280;44465;53.206;-6.106;2023-12-29T10:23:38;100141.72;;;21.54;49.62
58686;BME280;44465;53.206;-6.106;2023-12-29T10:26:07;100133.84;;;21.38;49.70
58686;BME280;44465;53.206;-6.106;2023-12-29T10:28:35;100146.19;;;21.41;50.42
58686;BME280;44465;53.206;-6.106;2023-12-29T10:31:02;100167.63;;;21.41;47.43
58686;BME280;44465;53.206;-6.106;2023-12-29T10:33:29;100160.94;;;21.06;48.38
58686;BME280;44465;53.206;-6.106;2023-12-29T10:35:57;100204.00;;;21.30;49.00
58686;BME280;44465;53.206;-6.106;2023-12-29T10:38:27;100213.53;;;21.34;49.50
58686;BME280;44465;53.206;-6.106;2023-12-29T10:40:53;100214.91;;;21.27;49.37
58686;BME280;44465;53.206;-6.106;2023-12-29T10:43:23;100260.41;;;21.42;49.43
58686;BME280;44465;53.206;-6.106;2023-12-29T10:45:49;100260.91;;;21.34;49.71
58686;BME280;44465;53.206;-6.106;2023-12-29T10:48:21;100279.72;;;21.47;50.15
58686;BME280;44465;53.206;-6.106;2023-12-29T10:50:49;100277.59;;;21.52;49.70
58686;BME280;44465;53.206;-6.106;2023-12-29T10:53:15;100268.22;;;21.59;49.34
58686;BME280;44465;53.206;-6.106;2023-12-29T10:55:43;100262.50;;;21.51;49.65
58686;BME280;44465;53.206;-6.106;2023-12-29T10:58:09;100281.44;;;21.48;49.51
58686;BME280;44465;53.206;-6.106;2023-12-29T11:00:35;100271.66;;;21.47;49.79
58686;BME280;44465;53.206;-6.106;2023-12-29T11:03:00;100228.28;;;21.42;49.88
58686;BME280;44465;53.206;-6.106;2023-12-29T11:05:27;100234.16;;;21.47;49.65
58686;BME280;44465;53.206;-6.106;2023-12-29T11:07:54;100214.03;;;21.54;49.48
58686;BME280;44465;53.206;-6.106;2023-12-29T11:10:21;100213.84;;;21.57;49.66
58686;BME280;44465;53.206;-6.106;2023-12-29T11:12:48;100214.63;;;21.59;49.83
58686;BME280;44465;53.206;-6.106;2023-12-29T11:15:15;100195.28;;;21.54;49.68
58686;BME280;44465;53.206;-6.106;2023-12-29T11:17:42;100195.91;;;21.72;49.36
58686;BME280;44465;53.206;-6.106;2023-12-29T11:20:15;100182.78;;;21.54;49.64
58686;BME280;44465;53.206;-6.106;2023-12-29T11:22:42;100188.59;;;21.61;49.95
58686;BME280;44465;53.206;-6.106;2023-12-29T11:25:09;100177.56;;;21.66;49.86
58686;BME280;44465;53.206;-6.106;2023-12-29T11:27:35;100183.63;;;21.55;50.16
58686;BME280;44465;53.206;-6.106;2023-12-29T11:30:03;100185.63;;;21.66;50.10
58686;BME280;44465;53.206;-6.106;2023-12-29T11:35:13;100177.88;;;21.61;50.44
58686;BME280;44465;53.206;-6.106;2023-12-29T11:37:51;100172.69;;;21.58;50.45
58686;BME280;44465;53.206;-6.106;2023-12-29T11:40:25;100186.47;;;21.66;50.39
58686;BME280;44465;53.206;-6.106;2023-12-29T11:42:54;100162.66;;;21.75;50.36
58686;BME280;44465;53.206;-6.106;2023-12-29T11:45:29;100186.06;;;21.73;50.40
58686;BME280;44465;53.206;-6.106;2023-12-29T11:47:57;100166.75;;;21.67;50.38
58686;BME280;44465;53.206;-6.106;2023-12-29T11:50:32;100167.00;;;21.77;50.48
58686;BME280;44465;53.206;-6.106;2023-12-29T11:52:58;100163.56;;;21.75;50.68
58686;BME280;44465;53.206;-6.106;2023-12-29T11:55:34;100155.00;;;21.83;50.42
58686;BME280;44465;53.206;-6.106;2023-12-29T11:58:00;100149.06;;;21.78;50.55
58686;BME280;44465;53.206;-6.106;2023-12-29T12:00:46;100141.16;;;21.89;49.74
58686;BME280;44465;53.206;-6.106;2023-12-29T12:03:25;100148.34;;;21.89;49.99
58686;BME280;44465;53.206;-6.106;2023-12-29T12:05:53;100143.28;;;21.84;50.41
58686;BME280;44465;53.206;-6.106;2023-12-29T12:08:32;100142.31;;;21.85;50.34
58686;BME280;44465;53.206;-6.106;2023-12-29T12:13:57;100128.72;;;21.75;50.46
58686;BME280;44465;53.206;-6.106;2023-12-29T12:19:11;100150.47;;;21.83;50.56
58686;BME280;44465;53.206;-6.106;2023-12-29T12:21:37;100120.44;;;21.65;50.71
58686;BME280;44465;53.206;-6.106;2023-12-29T12:24:07;100131.84;;;21.82;50.99
58686;BME280;44465;53.206;-6.106;2023-12-29T12:26:33;100120.34;;;21.67;50.80
58686;BME280;44465;53.206;-6.106;2023-12-29T12:29:00;100151.75;;;21.91;50.82
58686;BME280;44465;53.206;-6.106;2023-12-29T12:31:26;100146.84;;;21.84;50.38
58686;BME280;44465;53.206;-6.106;2023-12-29T12:33:55;100152.84;;;21.88;50.06
58686;BME280;44465;53.206;-6.106;2023-12-29T12:36:22;100168.47;;;21.94;50.17
58686;BME280;44465;53.206;-6.106;2023-12-29T12:38:54;100163.34;;;21.91;49.88
58686;BME280;44465;53.206;-6.106;2023-12-29T12:41:21;100153.28;;;21.82;49.79
58686;BME280;44465;53.206;-6.106;2023-12-29T12:46:23;100172.34;;;21.90;49.51
58686;BME280;44465;53.206;-6.106;2023-12-29T12:48:52;100178.34;;;21.94;49.72
58686;BME280;44465;53.206;-6.106;2023-12-29T12:51:19;100174.50;;;21.98;49.67
58686;BME280;44465;53.206;-6.106;2023-12-29T12:53:46;100186.09;;;21.98;49.99
58686;BME280;44465;53.206;-6.106;2023-12-29T12:56:13;100171.28;;;21.93;50.36
58686;BME280;44465;53.206;-6.106;2023-12-29T12:58:39;100178.59;;;22.04;50.36
58686;BME280;44465;53.206;-6.106;2023-12-29T13:01:06;100187.81;;;21.99;50.27
58686;BME280;44465;53.206;-6.106;2023-12-29T13:03:32;100193.16;;;21.99;50.14